Archival Weather

Chicago O'Hare International

Chicago, Illinois (KORD)

Report from: Wednesday, March 27, 2024 10:51 AM CDT
Current time: Tuesday, May 21, 2024 11:58 AM CDT

Current weather – Weather history – Daily summaries
Weather forecast

Temperature0.0°C (32.0°F)
Wind chill-5.5°C (22.0°F)
Dew point-6.1°C (21.0°F)
Winds 12 kts (6.2 m/s, 13.8 mph) West (270°)
Wind gusts 19 kts (9.8 m/s, 21.9 mph)
Visibility10 mi. (16.1 km)
Clouds Ceiling: Broken clouds 2,900 ft. (884 m)
Altimeter30.03 in.Hg (1017 mB)
Relative humidity63 %
Density altitude-1,922 ft. (-586 m)
Sea-level pressure101.8 kPa (1018 mB, 30.05 in.Hg)
Remarks Automated weather observing station with precipitation discriminator
Flight conditions Marginal Visual Meteorological Conditions
Raw dataKORD 271551Z 27012G19KT 10SM BKN029 00/M06 A3003 RMK AO2 SLP177 T00001061
An error has occurred. This application may no longer respond until reloaded. Reload 🗙